createdAt,value
2019-04-29T00:01:17.905Z,100202.50
2019-04-29T00:03:25.828Z,100197.87
2019-04-29T00:05:33.455Z,100202.60
2019-04-29T00:07:41.282Z,100206.66
2019-04-29T00:09:49.167Z,100192.50
2019-04-29T00:11:57.345Z,100200.05
2019-04-29T00:14:05.275Z,100196.64
2019-04-29T00:16:32.201Z,100196.56
2019-04-29T00:18:55.032Z,100199.10
2019-04-29T00:21:02.917Z,100194.58
2019-04-29T00:23:10.830Z,100194.66
2019-04-29T00:25:18.706Z,100195.16
2019-04-29T00:27:26.634Z,100183.44
2019-04-29T00:29:34.499Z,100181.94
2019-04-29T00:31:42.282Z,100182.67
2019-04-29T00:33:50.051Z,100176.47
2019-04-29T00:35:57.859Z,100172.21
2019-04-29T00:38:24.561Z,100165.89
2019-04-29T00:40:50.561Z,100163.81
2019-04-29T00:43:23.084Z,100160.81
2019-04-29T00:45:31.109Z,100157.86
2019-04-29T00:47:39.092Z,100156.38
2019-04-29T00:49:46.891Z,100154.84
2019-04-29T00:51:54.787Z,100156.65
2019-04-29T00:54:07.784Z,100154.39
2019-04-29T00:56:15.514Z,100161.53
2019-04-29T00:58:23.184Z,100159.37
2019-04-29T01:00:40.060Z,100176.75
2019-04-29T01:02:47.863Z,100163.92
2019-04-29T01:04:55.557Z,100170.03
2019-04-29T01:07:03.384Z,100173.42
2019-04-29T01:09:14.203Z,100169.28
2019-04-29T01:11:21.936Z,100177.33
2019-04-29T01:13:29.691Z,100182.23
2019-04-29T01:15:37.710Z,100178.24
2019-04-29T01:17:45.430Z,100173.34
2019-04-29T01:19:53.122Z,100181.95
2019-04-29T01:22:01.180Z,100176.83
2019-04-29T01:24:08.906Z,100170.05
2019-04-29T01:26:35.454Z,100177.42
2019-04-29T01:28:51.012Z,100175.13
2019-04-29T01:31:07.047Z,100176.84
2019-04-29T01:33:14.763Z,100174.30
2019-04-29T01:35:22.370Z,100171.55
2019-04-29T01:37:37.325Z,100164.00
2019-04-29T01:40:09.841Z,100163.63
2019-04-29T01:42:30.368Z,100161.26
2019-04-29T01:44:38.822Z,100161.00
2019-04-29T01:46:46.725Z,100153.16
2019-04-29T01:48:54.374Z,100141.84
2019-04-29T01:51:02.042Z,100148.34
2019-04-29T01:53:10.284Z,100143.82
2019-04-29T01:55:18.029Z,100149.30
2019-04-29T01:57:25.481Z,100143.16
2019-04-29T01:59:33.292Z,100140.44
2019-04-29T02:01:40.994Z,100134.59
2019-04-29T02:03:48.751Z,100143.53
2019-04-29T02:05:56.539Z,100149.38
2019-04-29T02:08:04.141Z,100144.20
2019-04-29T02:10:37.133Z,100142.12
2019-04-29T02:12:44.928Z,100146.47
2019-04-29T02:14:52.553Z,100142.58
2019-04-29T02:17:00.307Z,100147.11
2019-04-29T02:19:08.063Z,100150.03
2019-04-29T02:21:15.724Z,100140.02
2019-04-29T02:23:45.204Z,100146.74
2019-04-29T02:25:53.125Z,100141.52
2019-04-29T02:28:00.900Z,100151.72
2019-04-29T02:30:10.441Z,100143.63
2019-04-29T02:32:18.097Z,100144.56
2019-04-29T02:34:25.822Z,100138.98
2019-04-29T02:36:33.497Z,100132.76
2019-04-29T02:38:59.931Z,100138.52
2019-04-29T02:41:26.822Z,100132.98
2019-04-29T02:43:36.182Z,100120.47
2019-04-29T02:45:43.985Z,100120.66
2019-04-29T02:47:51.654Z,100116.53
2019-04-29T02:49:59.485Z,100110.88
2019-04-29T02:52:07.483Z,100116.14
2019-04-29T02:54:15.446Z,100115.14
2019-04-29T02:56:23.203Z,100111.05
2019-04-29T02:58:58.569Z,100111.33
2019-04-29T03:01:25.081Z,100100.41
2019-04-29T03:04:00.307Z,100101.51
2019-04-29T03:06:08.271Z,100101.70
2019-04-29T03:08:16.047Z,100108.33
2019-04-29T03:10:23.859Z,100120.20
2019-04-29T03:12:31.596Z,100125.83
2019-04-29T03:14:39.662Z,100127.38
2019-04-29T03:16:47.549Z,100127.59
2019-04-29T03:19:00.101Z,100126.27
2019-04-29T03:21:19.409Z,100123.62
2019-04-29T03:23:27.500Z,100125.75
2019-04-29T03:25:35.377Z,100122.08
2019-04-29T03:27:43.236Z,100116.45
2019-04-29T03:29:51.039Z,100117.01
2019-04-29T03:31:59.246Z,100114.27
2019-04-29T03:34:15.429Z,100113.44
2019-04-29T03:36:23.228Z,100108.63
2019-04-29T03:38:31.016Z,100103.22
2019-04-29T03:40:38.930Z,100107.66
2019-04-29T03:42:52.262Z,100116.23
2019-04-29T03:44:59.925Z,100100.97
2019-04-29T03:47:07.862Z,100109.58
2019-04-29T03:49:15.622Z,100105.03
2019-04-29T03:51:23.323Z,100105.70
2019-04-29T03:53:30.953Z,100105.88
2019-04-29T03:55:40.679Z,100104.45
2019-04-29T03:57:48.277Z,100107.95
2019-04-29T03:59:57.168Z,100109.27
2019-04-29T04:02:16.081Z,100108.33
2019-04-29T04:04:42.826Z,100104.56
2019-04-29T04:06:59.006Z,100099.19
2019-04-29T04:09:19.628Z,100101.16
2019-04-29T04:11:27.158Z,100098.70
2019-04-29T04:13:35.052Z,100094.16
2019-04-29T04:15:43.016Z,100096.05
2019-04-29T04:17:59.830Z,100094.37
2019-04-29T04:20:09.084Z,100095.30
2019-04-29T04:22:16.840Z,100095.42
2019-04-29T04:24:24.674Z,100088.52
2019-04-29T04:26:32.411Z,100094.95
2019-04-29T04:28:40.110Z,100097.38
2019-04-29T04:30:47.889Z,100092.92
2019-04-29T04:32:55.716Z,100095.84
2019-04-29T04:35:03.629Z,100102.04
2019-04-29T04:37:11.416Z,100109.13
2019-04-29T04:39:19.126Z,100120.20
2019-04-29T04:41:26.916Z,100130.95
2019-04-29T04:43:34.604Z,100131.73
2019-04-29T04:45:42.343Z,100130.20
2019-04-29T04:47:50.171Z,100136.62
2019-04-29T04:49:57.850Z,100136.22
2019-04-29T04:52:05.620Z,100135.39
2019-04-29T04:54:13.375Z,100138.87
2019-04-29T04:56:21.127Z,100134.97
2019-04-29T04:58:28.951Z,100135.06
2019-04-29T05:00:38.042Z,100123.92
2019-04-29T05:02:45.823Z,100132.98
2019-04-29T05:04:53.434Z,100137.80
2019-04-29T05:07:01.198Z,100147.33
2019-04-29T05:09:09.233Z,100145.04
2019-04-29T05:11:17.092Z,100144.59
2019-04-29T05:13:28.198Z,100145.73
2019-04-29T05:15:34.954Z,100152.62
2019-04-29T05:17:42.785Z,100152.31
2019-04-29T05:19:50.549Z,100147.87
2019-04-29T05:21:58.417Z,100144.59
2019-04-29T05:24:06.157Z,100144.47
2019-04-29T05:26:13.903Z,100139.94
2019-04-29T05:28:21.643Z,100141.83
2019-04-29T05:30:29.425Z,100145.79
2019-04-29T05:32:37.231Z,100138.97
2019-04-29T05:34:48.280Z,100141.57
2019-04-29T05:37:12.131Z,100140.64
2019-04-29T05:39:26.284Z,100138.66
2019-04-29T05:41:34.770Z,100144.66
2019-04-29T05:43:52.418Z,100149.25
2019-04-29T05:46:12.464Z,100147.92
2019-04-29T05:48:20.620Z,100148.67
2019-04-29T05:50:52.178Z,100149.98
2019-04-29T05:53:05.013Z,100153.26
2019-04-29T05:55:13.695Z,100146.47
2019-04-29T05:57:25.254Z,100150.88
2019-04-29T05:59:31.914Z,100151.36
2019-04-29T06:01:42.617Z,100150.52
2019-04-29T06:03:49.293Z,100148.96
2019-04-29T06:05:57.191Z,100144.77
2019-04-29T06:08:04.972Z,100156.78
2019-04-29T06:10:12.816Z,100150.81
2019-04-29T06:12:20.559Z,100147.68
2019-04-29T06:14:28.214Z,100148.69
2019-04-29T06:16:36.109Z,100139.23
2019-04-29T06:18:44.069Z,100143.38
2019-04-29T06:20:51.986Z,100146.70
2019-04-29T06:22:59.773Z,100151.31
2019-04-29T06:25:07.826Z,100156.97
2019-04-29T06:27:15.595Z,100151.31
2019-04-29T06:29:23.467Z,100154.06
2019-04-29T06:31:31.212Z,100144.12
2019-04-29T06:33:38.657Z,100146.33
2019-04-29T06:35:47.440Z,100141.99
2019-04-29T06:37:56.197Z,100143.81
2019-04-29T06:40:04.151Z,100141.27
2019-04-29T06:42:15.430Z,100137.55
2019-04-29T06:44:21.339Z,100131.11
2019-04-29T06:46:29.099Z,100130.14
2019-04-29T06:48:37.152Z,100128.39
2019-04-29T06:50:44.960Z,100126.89
2019-04-29T06:52:52.828Z,100129.19
2019-04-29T06:55:00.754Z,100126.64
2019-04-29T06:57:08.516Z,100128.37
2019-04-29T06:59:16.395Z,100131.98
2019-04-29T07:01:24.236Z,100140.41
2019-04-29T07:03:31.989Z,100148.73
2019-04-29T07:05:39.812Z,100150.80
2019-04-29T07:07:47.583Z,100150.52
2019-04-29T07:09:56.987Z,100139.97
2019-04-29T07:12:08.131Z,100138.41
2019-04-29T07:14:14.809Z,100144.61
2019-04-29T07:16:27.205Z,100142.49
2019-04-29T07:18:32.366Z,100146.29
2019-04-29T07:20:40.238Z,100148.66
2019-04-29T07:22:48.174Z,100141.09
2019-04-29T07:24:55.960Z,100141.44
2019-04-29T07:27:04.498Z,100146.11
2019-04-29T07:29:12.290Z,100140.38
2019-04-29T07:31:20.533Z,100145.93
2019-04-29T07:33:28.544Z,100149.66
2019-04-29T07:35:38.168Z,100149.66
2019-04-29T07:37:45.711Z,100154.47
2019-04-29T07:39:53.555Z,100151.69
2019-04-29T07:42:03.241Z,100150.44
2019-04-29T07:44:13.770Z,100152.26
2019-04-29T07:46:56.389Z,100153.03
2019-04-29T07:49:01.694Z,100140.34
2019-04-29T07:51:05.941Z,100136.76
2019-04-29T07:53:14.145Z,100152.34
2019-04-29T07:55:25.903Z,100147.76
2019-04-29T07:57:31.335Z,100148.84
2019-04-29T07:59:39.701Z,100150.61
2019-04-29T08:01:47.531Z,100150.39
2019-04-29T08:03:55.243Z,100144.48
2019-04-29T08:06:03.215Z,100150.67
2019-04-29T08:08:11.215Z,100144.49
2019-04-29T08:10:23.763Z,100141.86
2019-04-29T08:12:33.129Z,100143.92
2019-04-29T08:14:41.973Z,100138.86
2019-04-29T08:16:49.759Z,100144.77
2019-04-29T08:18:57.731Z,100149.86
2019-04-29T08:21:05.716Z,100147.20
2019-04-29T08:23:13.511Z,100152.52
2019-04-29T08:25:21.780Z,100146.10
2019-04-29T08:27:39.910Z,100153.97
2019-04-29T08:29:40.510Z,100150.58
2019-04-29T08:31:51.825Z,100150.58
2019-04-29T08:33:57.770Z,100148.41
2019-04-29T08:36:05.834Z,100148.41
2019-04-29T08:38:13.389Z,100147.89
2019-04-29T08:40:21.210Z,100146.11
2019-04-29T08:42:32.124Z,100143.19
2019-04-29T08:45:07.819Z,100148.14
2019-04-29T08:47:23.583Z,100149.70
2019-04-29T08:49:30.909Z,100145.07
2019-04-29T08:51:38.656Z,100148.84
2019-04-29T08:53:46.380Z,100142.24
2019-04-29T08:55:54.195Z,100143.45
2019-04-29T08:58:02.172Z,100141.77
2019-04-29T09:00:12.166Z,100148.30
2019-04-29T09:02:33.566Z,100143.19
2019-04-29T09:04:33.274Z,100158.58
2019-04-29T09:06:40.722Z,100157.41
2019-04-29T09:08:55.513Z,100157.55
2019-04-29T09:10:58.077Z,100153.01
2019-04-29T09:13:05.964Z,100155.50
2019-04-29T09:15:14.568Z,100153.61
2019-04-29T09:17:22.578Z,100157.95
2019-04-29T09:19:30.464Z,100154.95
2019-04-29T09:21:39.868Z,100157.62
2019-04-29T09:23:47.720Z,100158.38
2019-04-29T09:26:05.349Z,100154.75
2019-04-29T09:28:17.972Z,100155.70
2019-04-29T09:30:23.637Z,100148.67
2019-04-29T09:32:33.957Z,100151.83
2019-04-29T09:34:40.823Z,100146.41
2019-04-29T09:36:49.834Z,100144.83
2019-04-29T09:38:57.683Z,100145.62
2019-04-29T09:41:12.747Z,100140.79
2019-04-29T09:43:41.750Z,100140.66
2019-04-29T09:46:03.465Z,100141.05
2019-04-29T09:48:11.247Z,100142.81
2019-04-29T09:50:19.520Z,100139.23
2019-04-29T09:52:27.313Z,100141.75
2019-04-29T09:54:35.097Z,100131.84
2019-04-29T09:56:43.537Z,100140.56
2019-04-29T09:58:54.450Z,100133.19
2019-04-29T10:01:18.931Z,100130.84
2019-04-29T10:03:44.031Z,100129.01
2019-04-29T10:06:05.339Z,100133.59
2019-04-29T10:08:13.283Z,100126.97
2019-04-29T10:10:21.263Z,100121.42
2019-04-29T10:12:28.948Z,100122.06
2019-04-29T10:14:36.792Z,100121.95
2019-04-29T10:17:03.329Z,100117.03
2019-04-29T10:19:25.161Z,100117.17
2019-04-29T10:21:33.062Z,100110.94
2019-04-29T10:23:40.925Z,100106.62
2019-04-29T10:25:48.847Z,100110.68
2019-04-29T10:27:56.442Z,100111.27
2019-04-29T10:30:06.136Z,100111.91
2019-04-29T10:32:14.754Z,100111.42
2019-04-29T10:34:22.583Z,100109.20
2019-04-29T10:36:30.273Z,100115.02
2019-04-29T10:38:40.448Z,100107.45
2019-04-29T10:41:03.586Z,100113.91
2019-04-29T10:43:20.696Z,100112.45
2019-04-29T10:45:47.305Z,100101.11
2019-04-29T10:48:03.799Z,100105.00
2019-04-29T10:50:16.810Z,100109.41
2019-04-29T10:52:24.506Z,100102.81
2019-04-29T10:54:32.723Z,100097.76
2019-04-29T10:56:41.067Z,100094.07
2019-04-29T10:58:49.008Z,100099.56
2019-04-29T11:02:09.310Z,100099.73
2019-04-29T11:04:14.673Z,100097.77
2019-04-29T11:06:22.078Z,100089.73
2019-04-29T11:08:48.233Z,100096.56
2019-04-29T11:11:02.274Z,100098.59
2019-04-29T11:13:07.002Z,100088.84
2019-04-29T11:15:16.096Z,100095.02
2019-04-29T11:17:25.662Z,100089.53
2019-04-29T11:19:35.047Z,100085.57
2019-04-29T11:21:42.889Z,100082.38
2019-04-29T11:24:15.667Z,100084.78
2019-04-29T11:26:46.691Z,100082.36
2019-04-29T11:28:56.107Z,100078.34
2019-04-29T11:31:04.163Z,100078.53
2019-04-29T11:33:18.210Z,100081.31
2019-04-29T11:35:32.212Z,100081.80
2019-04-29T11:37:40.037Z,100083.61
2019-04-29T11:39:50.312Z,100089.92
2019-04-29T11:41:59.784Z,100083.06
2019-04-29T11:44:07.153Z,100082.95
2019-04-29T11:46:15.745Z,100078.70
2019-04-29T11:48:23.592Z,100084.28
2019-04-29T11:50:40.363Z,100079.91
2019-04-29T11:52:48.279Z,100078.01
2019-04-29T11:54:56.372Z,100079.69
2019-04-29T11:57:04.117Z,100072.73
2019-04-29T11:59:35.240Z,100074.09
2019-04-29T12:02:10.818Z,100066.80
2019-04-29T12:04:49.579Z,100063.52
2019-04-29T12:06:58.413Z,100065.33
2019-04-29T12:09:08.907Z,100071.75
2019-04-29T12:11:17.026Z,100070.67
2019-04-29T12:13:43.947Z,100065.82
2019-04-29T12:15:58.425Z,100060.79
2019-04-29T12:18:12.943Z,100050.34
2019-04-29T12:20:42.568Z,100047.84
2019-04-29T12:22:50.416Z,100050.70
2019-04-29T12:24:58.323Z,100044.68
2019-04-29T12:27:06.890Z,100049.03
2019-04-29T12:29:18.261Z,100040.92
2019-04-29T12:31:30.882Z,100033.66
2019-04-29T12:33:46.977Z,100040.91
2019-04-29T12:36:03.268Z,100038.40
2019-04-29T12:38:48.843Z,100031.43
2019-04-29T12:41:20.198Z,100036.36
2019-04-29T12:43:33.559Z,100039.19
2019-04-29T12:45:47.068Z,100038.41
2019-04-29T12:47:54.848Z,100037.44
2019-04-29T12:50:02.623Z,100034.25
2019-04-29T12:52:10.457Z,100031.15
2019-04-29T12:54:18.416Z,100029.45
2019-04-29T12:56:33.304Z,100027.16
2019-04-29T12:58:41.186Z,100027.03
2019-04-29T13:00:56.133Z,100025.23
2019-04-29T13:03:23.256Z,100026.09
2019-04-29T13:05:58.404Z,100018.99
2019-04-29T13:08:24.119Z,100015.92
2019-04-29T13:10:46.547Z,100003.31
2019-04-29T13:12:54.395Z,100001.33
2019-04-29T13:15:14.259Z,100001.89
2019-04-29T13:17:35.585Z,99996.42
2019-04-29T13:20:02.039Z,100002.73
2019-04-29T13:22:04.274Z,100002.98
2019-04-29T13:24:23.030Z,100009.96
2019-04-29T13:26:28.116Z,99995.20
2019-04-29T13:28:34.466Z,99993.91
2019-04-29T13:30:43.356Z,100002.73
2019-04-29T13:32:50.306Z,99997.83
2019-04-29T13:35:05.218Z,99994.11
2019-04-29T13:37:18.382Z,99993.77
2019-04-29T13:39:37.849Z,99997.50
2019-04-29T13:41:29.588Z,99995.59
2019-04-29T13:43:37.520Z,99992.95
2019-04-29T13:45:51.171Z,99990.86
2019-04-29T13:48:17.680Z,99987.63
2019-04-29T13:50:50.414Z,99986.02
2019-04-29T13:52:58.263Z,99993.23
2019-04-29T13:55:17.045Z,99988.38
2019-04-29T13:57:16.453Z,99982.69
2019-04-29T13:59:37.577Z,99987.39
2019-04-29T14:02:29.145Z,99973.95
2019-04-29T14:04:36.308Z,99969.25
2019-04-29T14:06:56.755Z,99986.73
2019-04-29T14:08:55.185Z,99979.68
2019-04-29T14:11:02.839Z,99979.62
2019-04-29T14:13:16.348Z,99978.22
2019-04-29T14:15:21.556Z,99983.06
2019-04-29T14:17:31.674Z,99980.84
2019-04-29T14:19:42.257Z,99984.86
2019-04-29T14:21:48.830Z,99986.77
2019-04-29T14:23:56.677Z,99980.41
2019-04-29T14:26:04.607Z,99985.48
2019-04-29T14:28:12.387Z,100001.28
2019-04-29T14:30:21.337Z,99994.28
2019-04-29T14:32:35.819Z,99998.14
2019-04-29T14:34:46.340Z,100017.14
2019-04-29T14:36:57.416Z,100023.34
2019-04-29T14:39:03.604Z,100032.86
2019-04-29T14:41:14.049Z,100032.50
2019-04-29T14:43:50.640Z,100044.05
2019-04-29T14:46:27.439Z,100051.08
2019-04-29T14:48:59.597Z,100047.93
2019-04-29T14:51:08.911Z,100054.95
2019-04-29T14:53:19.537Z,100064.66
2019-04-29T14:55:27.057Z,100059.06
2019-04-29T14:57:34.891Z,100056.55
2019-04-29T14:59:42.839Z,100053.47
2019-04-29T15:02:16.117Z,100054.22
2019-04-29T15:04:21.438Z,100051.45
2019-04-29T15:06:29.564Z,100052.34
2019-04-29T15:08:38.210Z,100053.78
2019-04-29T15:10:47.971Z,100057.66
2019-04-29T15:13:11.536Z,100054.68
2019-04-29T15:15:18.943Z,100055.30
2019-04-29T15:17:46.347Z,100052.79
2019-04-29T15:20:04.889Z,100054.28
2019-04-29T15:22:13.323Z,100069.97
2019-04-29T15:24:21.136Z,100071.16
2019-04-29T15:26:29.084Z,100074.28
2019-04-29T15:28:51.439Z,100077.28
2019-04-29T15:30:59.668Z,100088.16
2019-04-29T15:33:07.705Z,100093.48
2019-04-29T15:35:19.717Z,100094.47
2019-04-29T15:37:25.232Z,100094.73
2019-04-29T15:39:33.405Z,100094.61
2019-04-29T15:41:41.370Z,100093.42
2019-04-29T15:43:49.168Z,100097.99
2019-04-29T15:45:57.059Z,100094.61
2019-04-29T15:48:04.915Z,100094.01
2019-04-29T15:50:18.816Z,100090.32
2019-04-29T15:52:26.000Z,100094.31
2019-04-29T15:54:32.313Z,100093.22
2019-04-29T15:56:40.528Z,100092.98
2019-04-29T15:58:48.479Z,100089.73
2019-04-29T16:01:11.779Z,100091.39
2019-04-29T16:03:06.147Z,100089.89
2019-04-29T16:05:29.025Z,100097.20
2019-04-29T16:07:51.608Z,100094.27
2019-04-29T16:10:25.820Z,100099.48
2019-04-29T16:12:39.104Z,100102.75
2019-04-29T16:14:49.162Z,100097.83
2019-04-29T16:16:56.810Z,100103.37
2019-04-29T16:21:15.045Z,100101.53
2019-04-29T16:23:23.029Z,100104.91
2019-04-29T16:25:30.773Z,100110.45
2019-04-29T16:27:40.991Z,100106.36
2019-04-29T16:29:51.578Z,100107.08
2019-04-29T16:32:02.181Z,100109.41
2019-04-29T16:34:07.707Z,100109.52
2019-04-29T16:36:16.247Z,100111.73
2019-04-29T16:38:25.443Z,100123.70
2019-04-29T16:40:39.268Z,100119.36
2019-04-29T16:43:14.870Z,100123.94
2019-04-29T16:45:26.006Z,100120.58
2019-04-29T16:47:34.165Z,100113.47
2019-04-29T16:49:42.230Z,100115.27
2019-04-29T16:51:53.789Z,100113.05
2019-04-29T16:54:00.591Z,100111.98
2019-04-29T16:56:15.785Z,100111.06
2019-04-29T16:58:18.760Z,100116.02
2019-04-29T17:00:29.175Z,100111.64
2019-04-29T17:02:37.674Z,100113.81
2019-04-29T17:04:45.899Z,100114.19
2019-04-29T17:07:11.640Z,100121.81
2019-04-29T17:09:23.098Z,100125.08
2019-04-29T17:11:33.543Z,100124.70
2019-04-29T17:13:41.487Z,100130.00
2019-04-29T17:15:52.022Z,100133.78
2019-04-29T17:17:59.389Z,100134.97
2019-04-29T17:20:09.950Z,100140.17
2019-04-29T17:22:25.443Z,100139.95
2019-04-29T17:24:28.476Z,100142.58
2019-04-29T17:26:55.533Z,100141.75
2019-04-29T17:29:38.421Z,100143.91
2019-04-29T17:31:56.117Z,100151.67
2019-04-29T17:34:05.203Z,100149.14
2019-04-29T17:35:13.992Z,100103.14
2019-04-29T17:36:13.480Z,100149.25
2019-04-29T17:38:21.412Z,100150.84
2019-04-29T17:40:30.664Z,100149.97
2019-04-29T17:42:40.040Z,100151.66
2019-04-29T17:44:48.182Z,100148.03
2019-04-29T17:47:14.460Z,100155.25
2019-04-29T17:49:35.173Z,100164.09
2019-04-29T17:51:43.355Z,100165.16
2019-04-29T17:53:56.492Z,100172.94
2019-04-29T17:56:24.678Z,100179.69
2019-04-29T17:58:43.903Z,100172.11
2019-04-29T18:01:17.063Z,100180.10
2019-04-29T18:03:45.945Z,100178.34
2019-04-29T18:06:23.779Z,100186.34
2019-04-29T18:08:47.712Z,100190.58
2019-04-29T18:10:59.947Z,100194.16
2019-04-29T18:13:07.039Z,100199.08
2019-04-29T18:15:20.034Z,100191.91
2019-04-29T18:17:31.228Z,100199.61
2019-04-29T18:19:58.009Z,100202.13
2019-04-29T18:22:24.875Z,100201.80
2019-04-29T18:24:56.739Z,100204.17
2019-04-29T18:27:08.265Z,100205.84
2019-04-29T18:29:16.246Z,100212.72
2019-04-29T18:31:26.418Z,100215.72
2019-04-29T18:33:35.134Z,100217.95
2019-04-29T18:35:43.015Z,100216.86
2019-04-29T18:37:51.136Z,100221.07
2019-04-29T18:40:02.313Z,100218.92
2019-04-29T18:42:09.168Z,100226.84
2019-04-29T18:44:19.586Z,100230.84
2019-04-29T18:46:27.006Z,100235.33
2019-04-29T18:48:35.383Z,100229.83
2019-04-29T18:50:43.713Z,100229.70
2019-04-29T18:52:51.618Z,100240.34
2019-04-29T18:55:00.615Z,100236.92
2019-04-29T18:57:08.395Z,100245.85
2019-04-29T18:59:19.820Z,100246.42
2019-04-29T19:01:28.811Z,100250.59
2019-04-29T19:03:55.738Z,100246.27
2019-04-29T19:06:10.079Z,100245.36
2019-04-29T19:08:15.087Z,100244.00
2019-04-29T19:10:32.171Z,100243.36
2019-04-29T19:12:36.476Z,100247.01
2019-04-29T19:14:45.979Z,100251.83
2019-04-29T19:16:57.694Z,100248.76
2019-04-29T19:19:03.066Z,100243.36
2019-04-29T19:21:11.209Z,100248.14
2019-04-29T19:23:22.279Z,100246.48
2019-04-29T19:25:29.189Z,100249.18
2019-04-29T19:27:39.746Z,100247.17
2019-04-29T19:29:46.725Z,100251.59
2019-04-29T19:31:54.984Z,100251.11
2019-04-29T19:34:02.945Z,100249.25
2019-04-29T19:36:17.075Z,100255.47
2019-04-29T19:38:21.007Z,100244.18
2019-04-29T19:40:30.641Z,100248.39
2019-04-29T19:42:39.793Z,100248.67
2019-04-29T19:44:48.454Z,100242.95
2019-04-29T19:46:58.964Z,100245.11
2019-04-29T19:49:09.883Z,100238.64
2019-04-29T19:51:18.589Z,100239.60
2019-04-29T19:53:26.404Z,100242.18
2019-04-29T19:55:41.850Z,100237.81
2019-04-29T19:57:48.363Z,100242.42
2019-04-29T19:59:54.502Z,100244.64
2019-04-29T20:02:08.587Z,100238.32
2019-04-29T20:04:27.317Z,100240.22
2019-04-29T20:06:37.395Z,100242.03
2019-04-29T20:08:54.231Z,100240.54
2019-04-29T20:11:01.053Z,100241.12
2019-04-29T20:13:04.968Z,100236.76
2019-04-29T20:15:16.421Z,100235.44
2019-04-29T20:17:49.192Z,100239.94
2019-04-29T20:20:29.816Z,100236.02
2019-04-29T20:22:43.439Z,100237.91
2019-04-29T20:24:50.735Z,100242.62
2019-04-29T20:26:58.548Z,100239.45
2019-04-29T20:29:07.422Z,100241.35
2019-04-29T20:31:21.732Z,100239.10
2019-04-29T20:33:25.696Z,100241.00
2019-04-29T20:35:35.766Z,100238.89
2019-04-29T20:37:43.788Z,100241.92
2019-04-29T20:39:57.166Z,100245.77
2019-04-29T20:42:06.440Z,100243.25
2019-04-29T20:44:13.627Z,100248.64
2019-04-29T20:46:21.616Z,100250.31
2019-04-29T20:48:31.536Z,100248.02
2019-04-29T20:50:41.003Z,100252.38
2019-04-29T20:52:59.069Z,100248.98
2019-04-29T20:55:07.369Z,100246.16
2019-04-29T20:57:20.385Z,100252.25
2019-04-29T20:59:25.864Z,100246.41
2019-04-29T21:01:43.090Z,100248.30
2019-04-29T21:03:52.159Z,100242.86
2019-04-29T21:06:02.347Z,100244.00
2019-04-29T21:08:14.550Z,100247.41
2019-04-29T21:10:18.270Z,100244.52
2019-04-29T21:12:41.809Z,100247.02
2019-04-29T21:14:53.273Z,100245.89
2019-04-29T21:17:02.309Z,100245.98
2019-04-29T21:19:11.490Z,100246.65
2019-04-29T21:21:19.359Z,100238.50
2019-04-29T21:23:31.418Z,100244.66
2019-04-29T21:25:37.729Z,100250.61
2019-04-29T21:27:48.504Z,100254.22
2019-04-29T21:29:55.674Z,100251.76
2019-04-29T21:32:05.702Z,100253.09
2019-04-29T21:34:15.145Z,100250.46
2019-04-29T21:36:36.732Z,100255.36
2019-04-29T21:39:01.816Z,100255.17
2019-04-29T21:41:15.452Z,100256.77
2019-04-29T21:43:26.110Z,100250.23
2019-04-29T21:45:35.722Z,100252.41
2019-04-29T21:47:45.686Z,100255.56
2019-04-29T21:49:54.589Z,100257.18
2019-04-29T21:52:03.266Z,100261.03
2019-04-29T21:54:14.234Z,100258.97
2019-04-29T21:56:21.100Z,100253.47
2019-04-29T21:58:32.969Z,100246.85
2019-04-29T22:00:38.524Z,100257.98
2019-04-29T22:02:49.057Z,100256.31
2019-04-29T22:04:55.932Z,100258.57
2019-04-29T22:07:07.229Z,100263.48
2019-04-29T22:09:15.928Z,100257.41
2019-04-29T22:11:25.739Z,100261.77
2019-04-29T22:13:37.524Z,100267.45
2019-04-29T22:15:43.132Z,100257.83
2019-04-29T22:17:56.357Z,100264.07
2019-04-29T22:20:03.931Z,100262.16
2019-04-29T22:22:10.148Z,100255.48
2019-04-29T22:24:21.715Z,100259.16
2019-04-29T22:26:27.506Z,100257.63
2019-04-29T22:28:35.348Z,100258.50
2019-04-29T22:30:43.184Z,100251.20
2019-04-29T22:33:15.312Z,100259.05
2019-04-29T22:35:25.196Z,100261.80
2019-04-29T22:37:34.661Z,100263.14
2019-04-29T22:39:42.336Z,100263.14
2019-04-29T22:42:04.591Z,100251.53
2019-04-29T22:44:15.126Z,100261.63
2019-04-29T22:46:21.733Z,100263.71
2019-04-29T22:48:29.399Z,100261.22
2019-04-29T22:50:38.063Z,100266.12
2019-04-29T22:52:46.681Z,100261.20
2019-04-29T22:54:57.952Z,100258.39
2019-04-29T22:57:05.594Z,100256.30
2019-04-29T22:59:14.711Z,100255.27
2019-04-29T23:01:22.452Z,100261.88
2019-04-29T23:03:32.799Z,100263.48
2019-04-29T23:05:39.434Z,100265.02
2019-04-29T23:07:47.222Z,100258.96
2019-04-29T23:09:55.528Z,100266.70
2019-04-29T23:12:05.437Z,100259.03
2019-04-29T23:14:15.155Z,100259.80
2019-04-29T23:16:22.628Z,100266.05
2019-04-29T23:18:41.078Z,100261.05
2019-04-29T23:21:10.536Z,100271.98
2019-04-29T23:23:27.308Z,100269.34
2019-04-29T23:25:35.847Z,100264.63
2019-04-29T23:27:44.111Z,100265.57
2019-04-29T23:29:51.789Z,100271.63
2019-04-29T23:32:03.782Z,100262.17
2019-04-29T23:34:08.923Z,100263.67
2019-04-29T23:36:16.569Z,100259.70
2019-04-29T23:38:25.603Z,100261.14
2019-04-29T23:40:33.244Z,100259.33
2019-04-29T23:42:43.710Z,100253.56
2019-04-29T23:44:50.511Z,100256.69
2019-04-29T23:46:58.273Z,100256.60
2019-04-29T23:49:06.731Z,100255.77
2019-04-29T23:51:15.358Z,100254.41
2019-04-29T23:53:25.141Z,100253.28
2019-04-29T23:55:32.721Z,100256.98
2019-04-29T23:57:55.514Z,100249.59
